Pine Lake, New York
Current Conditions -  °F | °C
As of 3:15 PM on Friday 31 Oct 2014 (Local Time) from KNY0 Reporting Station
Broken Clouds Broken Clouds  
Wind Chill: 44°   Ceiling: 12000
Heat Index: 47°   Visibility: 10mi
Dew Point: 29°   Wind: 6mph
Humidity: 50%   Direction: 60°ENE
Pressure: 29.95"   Gusts: NA
Location:  43.2783°N, 74.5481°W
Report Text: KNY0 311915Z AUTO 06005KT 10SM BKN120 08/M01 A2995 RMK AO2 T00841015
Loading
Personal Weather Stations






























Interactive Weather Map
Tropical Storm Tracking
New forecast layout! Learn more

10-Day Weather Forecast

Advertisements
Track Severe Weather on mobile